Saturday, January 20, 2018, 8:25 AM EST
Back to Local

KTAN, Taunton Municipal Airport

Location: East Taunton, MA, United States Lat: 41.883
Local Time: 8:25 AM EST (13:25 GMT) Lon: -71.017
Time Zone: US/Eastern Elev: 42 ft

Show me the last for .
Show Decoded

2018-01-20 07:52 METAR KTAN 201252Z AUTO 24011G18KT 10SM CLR 03/M04 A2973 RMK AO2 SLP068
                 T00331044 =
2018-01-20 06:52 METAR KTAN 201152Z AUTO 23010G17KT 10SM CLR 03/M04 A2974 RMK AO2 SLP069
                 T00331044 10033 21033 56030 =
2018-01-20 05:52 METAR KTAN 201052Z AUTO 22006G17KT 10SM CLR 02/M04 A2976 RMK AO2 SLP078
                 T00221044 =
2018-01-20 04:52 METAR KTAN 200952Z AUTO 20005KT 10SM CLR 02/M05 A2979 RMK AO2 SLP087 T00171050 =
2018-01-20 03:52 METAR KTAN 200852Z AUTO 23005KT 10SM CLR 02/M05 A2983 RMK AO2 SLP099 T00171050
                 55018 =
2018-01-20 01:52 METAR KTAN 200652Z AUTO 17004KT 10SM CLR M01/M07 A2985 RMK AO2 SLP107 T10061067
                 =
2018-01-20 00:52 METAR KTAN 200552Z AUTO 00000KT 10SM CLR M02/M07 A2988 RMK AO2 SLP117 T10221067
                 11006 21039 58028 =
2018-01-19 23:52 METAR KTAN 200452Z AUTO 00000KT 10SM CLR M02/M07 A2991 RMK AO2 SLP128 T10221067
                 400221078 =
2018-01-19 22:52 METAR KTAN 200352Z AUTO 20003KT 10SM CLR M02/M07 A2994 RMK AO2 SLP139 T10171072
                 =
2018-01-19 21:52 METAR KTAN 200252Z AUTO 24004KT 10SM CLR M01/M07 A2996 RMK AO2 SLP145 T10111072
                 50005 =
2018-01-19 20:52 METAR KTAN 200152Z AUTO 24005KT 10SM OVC037 M01/M07 A2997 RMK AO2 SLP147
                 T10061067 =
2018-01-19 19:52 METAR KTAN 200052Z AUTO 25003KT 10SM CLR M02/M07 A2996 RMK AO2 SLP144 T10171072
                 =
2018-01-19 18:52 METAR KTAN 192352Z AUTO 24003KT 10SM BKN040 M02/M07 A2994 RMK AO2 SLP140
                 T10171072 10022 21017 50003 =
2018-01-19 17:52 METAR KTAN 192252Z AUTO 25003KT 10SM OVC040 00/M08 A2995 RMK AO2 SLP141
                 T00001078 =
2018-01-19 16:52 METAR KTAN 192152Z AUTO 27005KT 10SM CLR 01/M08 A2995 RMK AO2 SLP142 T00111078 =
2018-01-19 15:52 METAR KTAN 192052Z AUTO 26004KT 10SM CLR 02/M07 A2993 RMK AO2 SLP137 T00171072
                 53002 =
2018-01-19 14:52 METAR KTAN 191952Z AUTO 25005KT 10SM CLR 02/M07 A2993 RMK AO2 SLP134 T00171072 =
2018-01-19 13:52 METAR KTAN 191852Z AUTO 28007KT 10SM CLR 02/M07 A2991 RMK AO2 SLP130 T00221072 =
2018-01-19 12:52 METAR KTAN 191752Z AUTO VRB06KT 10SM CLR 01/M08 A2993 RMK AO2 SLP134 T00111078
                 10017 21067 58024 =
2018-01-19 11:52 METAR KTAN 191652Z AUTO 28006KT 10SM FEW032 01/M08 A2995 RMK AO2 SLP143
                 T00061078 =
2018-01-19 10:52 METAR KTAN 191552Z AUTO 27006KT 10SM BKN033 M01/M08 A2998 RMK AO2 SLP153
                 T10061083 =
2018-01-19 09:52 METAR KTAN 191452Z AUTO 28005KT 9SM CLR M02/M08 A3000 RMK AO2 SLP159 T10221083
                 51011 =
2018-01-19 08:52 METAR KTAN 191352Z AUTO VRB05KT 8SM BKN043 M04/M08 A3000 RMK AO2 SLP158
                 T10391083 =

Support USWX by starting your Amazon purchase here.